メインページ
METAR-TAF:

METAR-TAF

空港 :

パルマ・デ・マヨルカ空港

パルマ・デ・マリョルカ, スペイン

緯度: 39-33N, 経度: 002-44E, 海抜: 4m

現時点の気象観測

当レポートは30分前の03:30(UTC)に作成
西の風 24kt
気温 16°C
湿度 77%
気圧 1005 hPa
視程10km以上
高度3000ftの雲はほとんどない

METAR: LEPA 130330Z 26024KT 9999 FEW030 16/12 Q1005 NOSIG

時間: 05:00 (04:00 UTC)

予報

当レポートは5時間0分前の23:00(UTC)に作成
予報は13日の 00時(UTC)から 13日の 24時(UTC)まで有効
西の風 20kt
視程10km以上
高度3000ftの雲はほとんどない
確率 40% :
13日の 00時(UTC)から 13日の 12時(UTC)まで一時的に
西/南西の風 20kt、最大30ktの突風を伴う
13日の 18時(UTC)から 13日の 20時(UTC)まで徐々に
西/南西の風 10kt

TAF: LEPA 122300Z 1300/1324 27020KT 9999 FEW030 TX20/1313Z TN12/1306Z PROB40 TEMPO 1300/1312 25020G30KT BECMG 1318/1320 25010KT

4,000以上の空港の気象観測と天気予報(METAR報とTAF報)

利用可能な観測所は地図上に黄色い丸と赤い丸で示す。

丸の上にカーソルを重ねると観測所名を参照できる。

次にクリックすると気象観測と天気予報を参照できる。

マップの切り替え:黒色「×」印の緑ボタンをクリックして拡大、「-」印の緑ボタンをクリックして縮小、緑色の三角印をクリックして隣りの地図に切り替え


METAR-TAF: